Time;durP1;ratioP1;P1;durP2;ratioP2;P2;SDS_P1;SDS_P2;PMS_P1;PMS_P2;Temp;Humidity;BMP_temperature;BMP_pressure;BME280_temperature;BME280_humidity;BME280_pressure;Samples;Min_cycle;Max_cycle;Signal;HPM_P1;HPM_P2
2022/08/17 00:00:33;;;;;;;;;;;;;;;-142.75;100.00;75885.31;5052646;28;19993;-69
2022/08/17 00:03:16;;;;;;;;;;;;;;;-142.75;100.00;75863.66;5052544;28;19951;-69
2022/08/17 00:05:46;;;;;;;;;;;;;;;-142.75;100.00;75838.09;5052553;28;20347;-68
2022/08/17 00:08:13;;;;;;;;;;;;;;;-142.75;100.00;75826.28;5077874;22;19925;-67
2022/08/17 00:10:39;;;;;;;;;;;;;;;-142.75;100.00;75818.41;5070992;28;19996;-67
2022/08/17 00:13:06;;;;;;;;;;;;;;;-142.75;100.00;75802.66;5072029;28;19913;-67
2022/08/17 00:15:31;;;;;;;;;;;;;;;-142.75;100.00;75792.81;5054692;28;20050;-67
2022/08/17 00:17:56;;;;;;;;;;;;;;;-142.75;100.00;75798.72;5071920;28;20023;-67
2022/08/17 00:20:21;;;;;;;;;;;;;;;-142.75;100.00;75798.72;5071824;28;19966;-67
2022/08/17 00:22:47;;;;;;;;;;;;;;;-142.75;100.00;75794.78;5072420;28;20336;-67
2022/08/17 00:25:14;;;;;;;;;;;;;;;-142.75;100.00;75790.84;5072567;28;20292;-67
2022/08/17 00:27:39;;;;;;;;;;;;;;;-142.75;100.00;75796.75;5054152;28;19912;-67
2022/08/17 00:30:06;;;;;;;;;;;;;;;-142.75;100.00;75798.72;5072372;28;19912;-67
2022/08/17 00:32:35;;;;;;;;;;;;;;;-142.75;100.00;75800.69;5054180;28;19958;-67
2022/08/17 00:35:03;;;;;;;;;;;;;;;-142.75;100.00;75794.78;5073021;28;19913;-67
2022/08/17 00:37:28;;;;;;;;;;;;;;;-142.75;100.00;75796.75;5072312;28;19943;-67
2022/08/17 00:39:53;;;;;;;;;;;;;;;-142.75;100.00;75798.72;5072582;28;19912;-67
2022/08/17 00:42:18;;;;;;;;;;;;;;;-142.75;100.00;75796.75;5072446;28;19916;-67
2022/08/17 00:44:44;;;;;;;;;;;;;;;-142.75;100.00;75786.91;5054405;28;19913;-66
2022/08/17 00:47:09;;;;;;;;;;;;;;;-142.75;100.00;75798.72;5072016;28;20301;-67
2022/08/17 00:49:34;;;;;;;;;;;;;;;-142.75;100.00;75812.50;5072226;28;19966;-67
2022/08/17 00:52:05;;;;;;;;;;;;;;;-142.75;100.00;75790.84;5072138;28;19919;-67
2022/08/17 00:54:34;;;;;;;;;;;;;;;-142.75;100.00;75804.63;5072195;28;19920;-67
2022/08/17 00:57:03;;;;;;;;;;;;;;;-142.75;100.00;75822.34;5071874;28;20362;-67
2022/08/17 00:59:30;;;;;;;;;;;;;;;-142.75;100.00;75810.53;5072026;28;19920;-67
2022/08/17 01:01:56;;;;;;;;;;;;;;;-142.75;100.00;75834.16;5072178;28;19920;-67
2022/08/17 01:04:22;;;;;;;;;;;;;;;-142.75;100.00;75830.22;5072235;28;19912;-67
2022/08/17 01:06:48;;;;;;;;;;;;;;;-142.75;100.00;75836.13;5072009;28;19917;-67
2022/08/17 01:09:14;;;;;;;;;;;;;;;-142.75;100.00;75845.97;5072046;28;20344;-67
2022/08/17 01:11:39;;;;;;;;;;;;;;;-142.75;100.00;75845.97;5054014;28;20002;-67
2022/08/17 01:14:06;;;;;;;;;;;;;;;-142.75;100.00;75844.00;5072027;28;19955;-67
2022/08/17 01:16:31;;;;;;;;;;;;;;;-142.75;100.00;75834.16;5071810;28;20357;-67
2022/08/17 01:18:58;;;;;;;;;;;;;;;-142.75;100.00;75842.03;5071719;28;19959;-67
2022/08/17 01:21:40;;;;;;;;;;;;;;;-142.75;100.00;75842.03;5072140;28;19962;-67
2022/08/17 01:24:05;;;;;;;;;;;;;;;-142.75;100.00;75853.84;5072118;28;20374;-66
2022/08/17 01:26:31;;;;;;;;;;;;;;;-142.75;100.00;75873.50;5071633;28;19966;-67
2022/08/17 01:28:57;;;;;;;;;;;;;;;-142.75;100.00;75877.44;5071824;28;20032;-67
2022/08/17 01:31:26;;;;;;;;;;;;;;;-142.75;100.00;75893.19;5074366;28;20391;-67
2022/08/17 01:33:52;;;;;;;;;;;;;;;-142.75;100.00;75906.97;5057519;28;20374;-67
2022/08/17 01:36:17;;;;;;;;;;;;;;;-142.75;100.00;75910.91;5075490;28;19916;-67
2022/08/17 01:38:42;;;;;;;;;;;;;;;-142.75;100.00;75905.00;5075229;28;20389;-67
2022/08/17 01:41:11;;;;;;;;;;;;;;;-142.75;100.00;75905.00;5075304;28;19935;-67
2022/08/17 01:43:40;;;;;;;;;;;;;;;-142.75;100.00;75906.97;5057663;28;20062;-67
2022/08/17 01:46:05;;;;;;;;;;;;;;;-142.75;100.00;75924.69;5075410;28;19948;-67
2022/08/17 01:48:31;;;;;;;;;;;;;;;-142.75;100.00;75934.53;5074754;28;20381;-67
2022/08/17 01:50:57;;;;;;;;;;;;;;;-142.75;100.00;75936.50;5075167;28;19923;-67
2022/08/17 01:53:25;;;;;;;;;;;;;;;-142.75;100.00;75926.66;5075153;28;20290;-66
2022/08/17 01:55:56;;;;;;;;;;;;;;;-142.75;100.00;75916.81;5057108;28;19919;-67
2022/08/17 01:58:21;;;;;;;;;;;;;;;-142.75;100.00;75908.94;5056885;28;20393;-67
2022/08/17 02:00:50;;;;;;;;;;;;;;;-142.75;100.00;75881.38;5057213;28;19916;-67
2022/08/17 02:03:16;;;;;;;;;;;;;;;-142.75;100.00;75861.69;5074963;28;19912;-67
2022/08/17 02:05:41;;;;;;;;;;;;;;;-142.75;100.00;75847.94;5075014;28;19974;-67
2022/08/17 02:08:06;;;;;;;;;;;;;;;-142.75;100.00;75845.97;5056475;28;19985;-67
2022/08/17 02:10:33;;;;;;;;;;;;;;;-142.75;100.00;75842.03;5074781;28;19916;-67
2022/08/17 02:12:58;;;;;;;;;;;;;;;-142.75;100.00;75822.34;5074794;28;19923;-67
2022/08/17 02:15:24;;;;;;;;;;;;;;;-142.75;100.00;75830.22;5074761;28;19912;-67
2022/08/17 02:17:49;;;;;;;;;;;;;;;-142.75;100.00;75845.97;5074227;28;19971;-67
2022/08/17 02:20:14;;;;;;;;;;;;;;;-142.75;100.00;75869.56;5074626;28;20293;-67
2022/08/17 02:22:42;;;;;;;;;;;;;;;-142.75;100.00;75879.41;5074555;28;20289;-67
2022/08/17 02:25:08;;;;;;;;;;;;;;;-142.75;100.00;75883.34;5074428;28;20482;-67
2022/08/17 02:27:34;;;;;;;;;;;;;;;-142.75;100.00;75877.44;5074136;28;19969;-67
2022/08/17 02:29:59;;;;;;;;;;;;;;;-142.75;100.00;75859.72;5074470;28;20007;-67
2022/08/17 02:32:25;;;;;;;;;;;;;;;-142.75;100.00;75883.34;5074509;28;20338;-67
2022/08/17 02:34:50;;;;;;;;;;;;;;;-142.75;100.00;75922.72;5074715;28;19919;-67
2022/08/17 02:37:17;;;;;;;;;;;;;;;-142.75;100.00;75944.38;5073975;28;19924;-67
2022/08/17 02:39:44;;;;;;;;;;;;;;;-142.75;100.00;75942.41;5074447;28;19916;-67
2022/08/17 02:42:11;;;;;;;;;;;;;;;-142.75;100.00;75954.22;5073886;28;19919;-67
2022/08/17 02:44:37;;;;;;;;;;;;;;;-142.75;100.00;75958.16;5074254;28;19916;-67
2022/08/17 02:47:03;;;;;;;;;;;;;;;-142.75;100.00;75979.78;5073891;28;20049;-67
2022/08/17 02:49:28;;;;;;;;;;;;;;;-142.75;100.00;75979.78;5056443;28;19912;-67
2022/08/17 02:51:55;;;;;;;;;;;;;;;-142.75;100.00;75971.91;5056474;28;19913;-67
2022/08/17 02:54:20;;;;;;;;;;;;;;;-142.75;100.00;75969.94;5074150;28;19913;-67
2022/08/17 02:56:45;;;;;;;;;;;;;;;-142.75;100.00;75971.91;5074410;28;19962;-67
2022/08/17 02:59:10;;;;;;;;;;;;;;;-142.75;100.00;75989.63;5074647;28;19912;-67
2022/08/17 03:01:35;;;;;;;;;;;;;;;-142.75;100.00;76003.41;5074604;28;19945;-67
2022/08/17 03:04:01;;;;;;;;;;;;;;;-142.75;100.00;76029.00;5074222;28;19957;-67
2022/08/17 03:06:28;;;;;;;;;;;;;;;-142.75;100.00;76036.88;5074442;28;19940;-67
2022/08/17 03:08:53;;;;;;;;;;;;;;;-142.75;100.00;76030.97;5073886;28;19927;-67
2022/08/17 03:11:18;;;;;;;;;;;;;;;-142.75;100.00;76038.84;5074321;28;19913;-67
2022/08/17 03:13:44;;;;;;;;;;;;;;;-142.75;100.00;76052.63;5074392;28;19916;-67
2022/08/17 03:16:09;;;;;;;;;;;;;;;-142.75;100.00;76054.59;5073997;28;19999;-67
2022/08/17 03:18:35;;;;;;;;;;;;;;;-142.75;100.00;76056.56;5074063;28;19936;-67
2022/08/17 03:21:03;;;;;;;;;;;;;;;-142.75;100.00;76066.41;5056580;28;20393;-67
2022/08/17 03:23:29;;;;;;;;;;;;;;;-142.75;100.00;76058.53;5074242;28;19920;-67
2022/08/17 03:25:54;;;;;;;;;;;;;;;-142.75;100.00;76064.44;5074205;28;20309;-67
2022/08/17 03:28:20;;;;;;;;;;;;;;;-142.75;100.00;76052.63;5056253;28;19912;-67
2022/08/17 03:30:45;;;;;;;;;;;;;;;-142.75;100.00;76064.44;5056556;28;19916;-67
2022/08/17 03:33:11;;;;;;;;;;;;;;;-142.75;100.00;76046.72;5074127;28;19916;-67
2022/08/17 03:35:39;;;;;;;;;;;;;;;-142.75;100.00;76038.84;5073759;28;19967;-67
2022/08/17 03:38:04;;;;;;;;;;;;;;;-142.75;100.00;76058.53;5073527;28;19921;-67
2022/08/17 03:40:30;;;;;;;;;;;;;;;-142.75;100.00;76052.63;5074229;28;20267;-67
2022/08/17 03:42:56;;;;;;;;;;;;;;;-142.75;100.00;76046.72;5073806;28;20437;-67
2022/08/17 03:56:41;;;;;;;;;;;;;;;-142.75;100.00;76048.69;5073736;28;19918;-67
2022/08/17 03:56:42;;;;;;;;;;;;;;;-142.75;100.00;76023.09;5073522;28;19923;-67
2022/08/17 03:59:15;;;;;;;;;;;;;;;-142.75;100.00;76019.16;5055741;28;19917;-67
2022/08/17 04:01:41;;;;;;;;;;;;;;;-142.75;100.00;76019.16;5073713;28;19912;-67
2022/08/17 04:04:06;;;;;;;;;;;;;;;-142.75;100.00;76019.16;5073858;28;19912;-67
2022/08/17 04:06:31;;;;;;;;;;;;;;;-142.75;100.00;76007.34;5055826;28;20382;-67
2022/08/17 04:08:57;;;;;;;;;;;;;;;-142.75;100.00;75991.59;5056295;28;20046;-67
2022/08/17 04:11:22;;;;;;;;;;;;;;;-142.75;100.00;75985.69;5074372;28;19912;-67
2022/08/17 04:13:47;;;;;;;;;;;;;;;-142.75;100.00;75987.66;5074285;28;20370;-67
2022/08/17 04:16:12;;;;;;;;;;;;;;;-142.75;100.00;75987.66;5074566;28;19955;-67
2022/08/17 04:18:37;;;;;;;;;;;;;;;-142.75;100.00;76009.31;5073922;28;19912;-67
2022/08/17 04:21:03;;;;;;;;;;;;;;;-142.75;100.00;75997.50;5074804;28;19920;-67
2022/08/17 04:23:32;;;;;;;;;;;;;;;-142.75;100.00;75999.47;5074228;28;20366;-67
2022/08/17 04:25:57;;;;;;;;;;;;;;;-142.75;100.00;75981.75;5074099;28;20368;-67
2022/08/17 04:28:23;;;;;;;;;;;;;;;-142.75;100.00;75977.81;5067268;28;19955;-66
2022/08/17 04:30:48;;;;;;;;;;;;;;;-142.75;100.00;75971.91;5073755;28;19913;-67
2022/08/17 04:33:18;;;;;;;;;;;;;;;-142.75;100.00;75960.13;5074060;28;20369;-67
2022/08/17 04:35:45;;;;;;;;;;;;;;;-142.75;100.00;75960.13;5073995;28;19944;-67
2022/08/17 04:38:11;;;;;;;;;;;;;;;-142.75;100.00;75960.13;5073850;28;19916;-67
2022/08/17 04:43:22;;;;;;;;;;;;;;;-142.75;100.00;75936.50;5073897;28;20023;-67
2022/08/17 04:45:52;;;;;;;;;;;;;;;-142.75;100.00;75942.41;5073879;28;19916;-66
2022/08/17 04:48:18;;;;;;;;;;;;;;;-142.75;100.00;75948.31;5073435;28;20054;-67
2022/08/17 04:50:44;;;;;;;;;;;;;;;-142.75;100.00;75952.25;5073208;28;20397;-67
2022/08/17 04:53:10;;;;;;;;;;;;;;;-142.75;100.00;75964.03;5073008;28;19920;-67
2022/08/17 04:55:36;;;;;;;;;;;;;;;-142.75;100.00;75958.16;5074008;28;19912;-67
2022/08/17 04:58:01;;;;;;;;;;;;;;;-142.75;100.00;75952.25;5073674;28;19916;-67
2022/08/17 05:00:26;;;;;;;;;;;;;;;-142.75;100.00;75958.16;5073858;28;19923;-67
2022/08/17 05:02:53;;;;;;;;;;;;;;;-142.75;100.00;75952.25;5074079;28;19912;-67
2022/08/17 05:05:19;;;;;;;;;;;;;;;-142.75;100.00;75954.22;5075272;28;20297;-67
2022/08/17 05:07:44;;;;;;;;;;;;;;;-142.75;100.00;75946.34;5077863;28;19970;-67
2022/08/17 05:10:10;;;;;;;;;;;;;;;-142.75;100.00;75936.50;5078432;28;19912;-67
2022/08/17 05:12:35;;;;;;;;;;;;;;;-142.75;100.00;75930.59;5076529;28;19913;-67
2022/08/17 05:15:00;;;;;;;;;;;;;;;-142.75;100.00;75922.72;5052298;28;19977;-67
2022/08/17 05:17:25;;;;;;;;;;;;;;;-142.75;100.00;75922.72;5076576;28;19920;-67
2022/08/17 05:19:50;;;;;;;;;;;;;;;-142.75;100.00;75934.53;5076917;28;19913;-67
2022/08/17 05:22:15;;;;;;;;;;;;;;;-142.75;100.00;75924.69;5076690;28;19912;-67
2022/08/17 05:24:41;;;;;;;;;;;;;;;-142.75;100.00;75932.56;5076663;28;19916;-67
2022/08/17 05:27:06;;;;;;;;;;;;;;;-142.75;100.00;75934.53;5076896;28;19991;-67
2022/08/17 05:29:31;;;;;;;;;;;;;;;-142.75;100.00;75934.53;5076349;28;19913;-67
2022/08/17 05:31:56;;;;;;;;;;;;;;;-142.75;100.00;75940.44;5076402;28;19923;-67
2022/08/17 05:34:22;;;;;;;;;;;;;;;-142.75;100.00;75934.53;5059230;28;20278;-67
2022/08/17 05:36:47;;;;;;;;;;;;;;;-142.75;100.00;75936.50;5058069;28;19924;-67
2022/08/17 05:39:13;;;;;;;;;;;;;;;-142.75;100.00;75940.44;5076703;28;19919;-67
2022/08/17 05:41:38;;;;;;;;;;;;;;;-142.75;100.00;75940.44;5076578;28;19935;-67
2022/08/17 05:44:03;;;;;;;;;;;;;;;-142.75;100.00;75942.41;5076093;28;19956;-67
2022/08/17 05:46:31;;;;;;;;;;;;;;;-142.75;100.00;75938.47;5075922;28;19947;-67
2022/08/17 05:49:00;;;;;;;;;;;;;;;-142.75;100.00;75926.66;5075216;28;19977;-67
2022/08/17 05:51:38;;;;;;;;;;;;;;;-142.75;100.00;75916.81;5075910;28;19913;-67
2022/08/17 05:54:09;;;;;;;;;;;;;;;-142.75;100.00;75924.69;5075853;28;19940;-67
2022/08/17 05:56:54;;;;;;;;;;;;;;;-142.75;100.00;75916.81;5075137;28;20301;-66
2022/08/17 05:59:37;;;;;;;;;;;;;;;-142.75;100.00;75899.09;5034213;28;19912;-67
2022/08/17 06:02:05;;;;;;;;;;;;;;;-142.75;100.00;75906.97;5075478;28;19912;-67
2022/08/17 06:04:44;;;;;;;;;;;;;;;-142.75;100.00;75901.06;5075266;28;20321;-67
2022/08/17 06:07:17;;;;;;;;;;;;;;;-142.75;100.00;75887.28;5075561;28;19913;-66
2022/08/17 06:09:47;;;;;;;;;;;;;;;-142.75;100.00;75881.38;5109374;22;20416;-67
2022/08/17 06:12:31;;;;;;;;;;;;;;;-142.75;100.00;75889.25;5092853;28;19920;-66
2022/08/17 06:15:18;;;;;;;;;;;;;;;-142.75;100.00;75887.28;5094900;28;19958;-67
2022/08/17 06:17:43;;;;;;;;;;;;;;;-142.75;100.00;75883.34;5093481;28;19917;-66
2022/08/17 06:20:13;;;;;;;;;;;;;;;-142.75;100.00;75865.63;5094786;28;19956;-66
2022/08/17 06:22:49;;;;;;;;;;;;;;;-142.75;100.00;75869.56;5094639;28;19999;-67
2022/08/17 06:25:33;;;;;;;;;;;;;;;-142.75;100.00;75873.50;5094782;28;19913;-66
2022/08/17 06:28:03;;;;;;;;;;;;;;;-142.75;100.00;75877.44;5092862;28;20015;-66
2022/08/17 06:30:33;;;;;;;;;;;;;;;-142.75;100.00;75867.59;5094586;28;19947;-66
2022/08/17 06:33:04;;;;;;;;;;;;;;;-142.75;100.00;75873.50;5093140;28;19916;-67
2022/08/17 06:35:32;;;;;;;;;;;;;;;-142.75;100.00;75881.38;5094579;28;20305;-66
2022/08/17 06:38:08;;;;;;;;;;;;;;;-142.75;100.00;75885.31;5094012;28;19920;-67
2022/08/17 06:40:36;;;;;;;;;;;;;;;-142.75;100.00;75883.34;5094489;28;19912;-67
2022/08/17 06:43:15;;;;;;;;;;;;;;;-142.75;100.00;75889.25;5094285;28;19951;-67
2022/08/17 06:45:47;;;;;;;;;;;;;;;-142.75;100.00;75889.25;5093040;28;20313;-67
2022/08/17 06:48:23;;;;;;;;;;;;;;;-142.75;100.00;75899.09;5093919;28;19919;-67
2022/08/17 06:50:54;;;;;;;;;;;;;;;-142.75;100.00;75897.13;5094262;28;19912;-67
2022/08/17 06:53:23;;;;;;;;;;;;;;;-142.75;100.00;75893.19;5094201;28;19912;-66
2022/08/17 06:55:48;;;;;;;;;;;;;;;-142.75;100.00;75897.13;5094022;28;19912;-67
2022/08/17 06:58:18;;;;;;;;;;;;;;;-142.75;100.00;75912.88;5093564;28;19927;-66
2022/08/17 07:00:44;;;;;;;;;;;;;;;-142.75;100.00;75906.97;5088341;28;19920;-66
2022/08/17 07:03:10;;;;;;;;;;;;;;;-142.75;100.00;75912.88;5080947;28;20078;-66
2022/08/17 07:05:43;;;;;;;;;;;;;;;-142.75;100.00;75918.78;5084645;28;20440;-66
2022/08/17 07:08:10;;;;;;;;;;;;;;;-142.75;100.00;75920.75;5080622;28;19916;-66
2022/08/17 07:10:55;;;;;;;;;;;;;;;-142.75;100.00;75908.94;5080579;28;19916;-66
2022/08/17 07:13:39;;;;;;;;;;;;;;;-142.75;100.00;75910.91;5080855;28;19912;-66
2022/08/17 07:16:09;;;;;;;;;;;;;;;-142.75;100.00;75897.13;5080899;28;19991;-67
2022/08/17 07:18:35;;;;;;;;;;;;;;;-142.75;100.00;75887.28;5079535;28;20015;-67
2022/08/17 07:21:07;;;;;;;;;;;;;;;-142.75;100.00;75883.34;5082133;28;20414;-67
2022/08/17 07:23:52;;;;;;;;;;;;;;;-142.75;100.00;75881.38;5074380;28;19923;-66
2022/08/17 07:26:17;;;;;;;;;;;;;;;-142.75;100.00;75865.63;5073269;28;19970;-66
2022/08/17 07:28:43;;;;;;;;;;;;;;;-142.75;100.00;75861.69;5085884;28;19912;-66
2022/08/17 07:31:12;;;;;;;;;;;;;;;-142.75;100.00;75867.59;5080853;28;19975;-65
2022/08/17 07:33:38;;;;;;;;;;;;;;;-142.75;100.00;75869.56;5077696;28;19912;-66
2022/08/17 07:36:04;;;;;;;;;;;;;;;-142.75;100.00;75881.38;5080615;28;19916;-66
2022/08/17 07:38:30;;;;;;;;;;;;;;;-142.75;100.00;75875.47;5080682;28;20011;-66
2022/08/17 07:40:56;;;;;;;;;;;;;;;-142.75;100.00;75842.03;5073010;28;20309;-67
2022/08/17 07:43:23;;;;;;;;;;;;;;;-142.75;100.00;75853.84;5081024;28;19913;-67
2022/08/17 07:48:37;;;;;;;;;;;;;;;-142.75;100.00;75842.03;5085875;28;19973;-67
2022/08/17 07:51:24;;;;;;;;;;;;;;;-142.75;100.00;75842.03;5074505;28;20354;-66
2022/08/17 07:53:49;;;;;;;;;;;;;;;-142.75;100.00;75830.22;5081159;28;19917;-66
2022/08/17 07:56:37;;;;;;;;;;;;;;;-142.75;100.00;75802.66;5074397;28;19997;-65
2022/08/17 07:59:06;;;;;;;;;;;;;;;-142.75;100.00;75771.16;5071981;28;19912;-67
2022/08/17 08:01:36;;;;;;;;;;;;;;;-142.75;100.00;75781.00;5071957;28;19916;-65
2022/08/17 08:04:14;;;;;;;;;;;;;;;-142.75;100.00;75767.22;5073495;28;19962;-65
2022/08/17 08:06:44;;;;;;;;;;;;;;;-142.75;100.00;75737.72;5085007;28;19916;-66
2022/08/17 08:09:26;;;;;;;;;;;;;;;-142.75;100.00;75749.53;5091450;28;19916;-67
2022/08/17 08:11:51;;;;;;;;;;;;;;;-142.75;100.00;75735.75;5091668;28;19912;-67
2022/08/17 08:14:23;;;;;;;;;;;;;;;-142.75;100.00;75755.44;5092691;28;19939;-67
2022/08/17 08:16:59;;;;;;;;;;;;;;;-142.75;100.00;75759.38;5087349;28;19924;-66
2022/08/17 08:19:25;;;;;;;;;;;;;;;-142.75;100.00;75757.41;5080821;28;20022;-67
2022/08/17 08:21:57;;;;;;;;;;;;;;;-142.75;100.00;75747.56;5082623;28;19951;-67
2022/08/17 08:24:41;;;;;;;;;;;;;;;-142.75;100.00;75773.13;5087866;28;19923;-67
2022/08/17 08:27:09;;;;;;;;;;;;;;;-142.75;100.00;75794.78;5079142;28;19916;-67
2022/08/17 08:29:34;;;;;;;;;;;;;;;-142.75;100.00;75775.09;5080870;28;20293;-67
2022/08/17 08:32:19;;;;;;;;;;;;;;;-142.75;100.00;75798.72;5081788;28;19912;-67
2022/08/17 08:34:52;;;;;;;;;;;;;;;-142.75;100.00;75798.72;5078855;28;19967;-68
2022/08/17 08:37:18;;;;;;;;;;;;;;;-142.75;100.00;75800.69;5071807;28;20327;-67
2022/08/17 08:40:01;;;;;;;;;;;;;;;-142.75;100.00;75834.16;5078364;28;19917;-68
2022/08/17 08:42:36;;;;;;;;;;;;;;;-142.75;100.00;75814.47;5080082;28;19912;-66
2022/08/17 08:45:20;;;;;;;;;;;;;;;-142.75;100.00;75804.63;5072201;28;19912;-67
2022/08/17 08:48:08;;;;;;;;;;;;;;;-142.75;100.00;75796.75;5071652;28;19916;-65
2022/08/17 08:50:57;;;;;;;;;;;;;;;-142.75;100.00;75806.59;5071531;28;20675;-68
2022/08/17 08:53:22;;;;;;;;;;;;;;;-142.75;100.00;75798.72;5072124;28;20404;-68
2022/08/17 08:55:53;;;;;;;;;;;;;;;-142.75;100.00;75792.81;5071972;28;19912;-68
2022/08/17 08:58:25;;;;;;;;;;;;;;;-142.75;100.00;75792.81;5071542;28;19931;-68
2022/08/17 09:00:53;;;;;;;;;;;;;;;-142.75;100.00;75790.84;5071833;28;20003;-68
2022/08/17 09:03:21;;;;;;;;;;;;;;;-142.75;100.00;75782.97;5071889;28;20373;-69
2022/08/17 09:05:46;;;;;;;;;;;;;;;-142.75;100.00;75782.97;5071869;28;19916;-68
2022/08/17 09:08:15;;;;;;;;;;;;;;;-142.75;100.00;75784.94;5070080;28;20368;-67
2022/08/17 09:10:43;;;;;;;;;;;;;;;-142.75;100.00;75784.94;5071930;28;20444;-67
2022/08/17 09:13:15;;;;;;;;;;;;;;;-142.75;100.00;75794.78;5071908;28;19993;-70
2022/08/17 09:16:01;;;;;;;;;;;;;;;-142.75;100.00;75788.88;5071762;28;19916;-70
2022/08/17 09:18:26;;;;;;;;;;;;;;;-142.75;100.00;75794.78;5069163;28;19970;-70
2022/08/17 09:20:55;;;;;;;;;;;;;;;-142.75;100.00;75796.75;5071618;28;19917;-70
2022/08/17 09:23:31;;;;;;;;;;;;;;;-142.75;100.00;75792.81;5071720;28;20336;-70
2022/08/17 09:26:01;;;;;;;;;;;;;;;-142.75;100.00;75796.75;5071686;28;19912;-69
2022/08/17 09:28:32;;;;;;;;;;;;;;;-142.75;100.00;75784.94;5071370;28;19956;-69
2022/08/17 09:31:02;;;;;;;;;;;;;;;-142.75;100.00;75788.88;5071644;28;19995;-70
2022/08/17 09:33:30;;;;;;;;;;;;;;;-142.75;100.00;75790.84;5070333;28;19955;-70
2022/08/17 09:36:04;;;;;;;;;;;;;;;-142.75;100.00;75786.91;5071406;28;19920;-70
2022/08/17 09:38:44;;;;;;;;;;;;;;;-142.75;100.00;75788.88;5070972;28;20003;-68
2022/08/17 09:41:14;;;;;;;;;;;;;;;-142.75;100.00;75777.06;5071610;28;19916;-69
2022/08/17 09:43:58;;;;;;;;;;;;;;;-142.75;100.00;75777.06;5071624;28;20267;-70
2022/08/17 09:46:27;;;;;;;;;;;;;;;-142.75;100.00;75779.03;5070197;28;20021;-68
2022/08/17 09:49:00;;;;;;;;;;;;;;;-142.75;100.00;75790.84;5071102;28;20366;-69
2022/08/17 09:51:30;;;;;;;;;;;;;;;-142.75;100.00;75779.03;5071550;28;20378;-69
2022/08/17 09:53:56;;;;;;;;;;;;;;;-142.75;100.00;75786.91;5074677;28;19912;-69
2022/08/17 09:56:40;;;;;;;;;;;;;;;-142.75;100.00;75779.03;5074889;28;19919;-70
2022/08/17 09:59:24;;;;;;;;;;;;;;;-142.75;100.00;75773.13;5074826;28;19912;-71
2022/08/17 10:01:52;;;;;;;;;;;;;;;-142.75;100.00;75779.03;5074822;28;19955;-71
2022/08/17 10:04:20;;;;;;;;;;;;;;;-142.75;100.00;75775.09;5073561;28;19969;-71
2022/08/17 10:07:04;;;;;;;;;;;;;;;-142.75;100.00;75792.81;5073238;28;20403;-69
2022/08/17 10:09:42;;;;;;;;;;;;;;;-142.75;100.00;75786.91;5074493;28;19952;-70
2022/08/17 10:12:18;;;;;;;;;;;;;;;-142.75;100.00;75779.03;5074688;28;19920;-70
2022/08/17 10:14:56;;;;;;;;;;;;;;;-142.75;100.00;75781.00;5074598;28;20377;-70
2022/08/17 10:17:33;;;;;;;;;;;;;;;-142.75;100.00;75765.25;5074231;28;19917;-70
2022/08/17 10:19:59;;;;;;;;;;;;;;;-142.75;100.00;75771.16;5074376;28;19913;-70
2022/08/17 10:28:06;;;;;;;;;;;;;;;-142.75;100.00;75796.75;5074135;28;19920;-70
2022/08/17 10:30:34;;;;;;;;;;;;;;;-142.75;100.00;75816.44;5074262;28;19919;-70
2022/08/17 10:33:01;;;;;;;;;;;;;;;-142.75;100.00;75810.53;5074296;28;19920;-70
2022/08/17 10:35:29;;;;;;;;;;;;;;;-142.75;100.00;75834.16;5072931;28;19919;-69
2022/08/17 10:37:58;;;;;;;;;;;;;;;-142.75;100.00;75834.16;5073602;28;19923;-70
2022/08/17 10:40:41;;;;;;;;;;;;;;;-142.75;100.00;75822.34;5074227;28;19913;-70
2022/08/17 10:43:09;;;;;;;;;;;;;;;-142.75;100.00;75816.44;5073938;28;19978;-70
2022/08/17 10:45:44;;;;;;;;;;;;;;;-142.75;100.00;75798.72;5074028;28;20006;-69
2022/08/17 10:48:11;;;;;;;;;;;;;;;-142.75;100.00;75802.66;5073579;28;19912;-69
2022/08/17 10:50:54;;;;;;;;;;;;;;;-142.75;100.00;75800.69;5074024;28;19920;-69
2022/08/17 10:53:31;;;;;;;;;;;;;;;-142.75;100.00;75800.69;5073742;28;19913;-70
2022/08/17 10:56:16;;;;;;;;;;;;;;;-142.75;100.00;75788.88;5085885;28;19923;-70
2022/08/17 10:58:47;;;;;;;;;;;;;;;-142.75;100.00;75779.03;5087566;28;20406;-69
2022/08/17 11:01:12;;;;;;;;;;;;;;;-142.75;100.00;75790.84;5080278;28;19916;-69
2022/08/17 11:03:53;;;;;;;;;;;;;;;-142.75;100.00;75788.88;5073193;28;19916;-69
2022/08/17 11:06:33;;;;;;;;;;;;;;;-142.75;100.00;75790.84;5073558;28;19913;-70
2022/08/17 11:09:14;;;;;;;;;;;;;;;-142.75;100.00;75800.69;5073405;28;19916;-70
2022/08/17 11:11:39;;;;;;;;;;;;;;;-142.75;100.00;75836.13;5073503;28;19920;-70
2022/08/17 11:14:10;;;;;;;;;;;;;;;-142.75;100.00;75822.34;5073503;28;19917;-68
2022/08/17 11:16:36;;;;;;;;;;;;;;;-142.75;100.00;75834.16;5073042;28;19912;-68
2022/08/17 11:19:20;;;;;;;;;;;;;;;-142.75;100.00;75826.28;5073336;28;20348;-69
2022/08/17 11:21:58;;;;;;;;;;;;;;;-142.75;100.00;75842.03;5073353;28;19912;-69
2022/08/17 11:24:37;;;;;;;;;;;;;;;-142.75;100.00;75842.03;5073245;28;19966;-69
2022/08/17 11:27:23;;;;;;;;;;;;;;;-142.75;100.00;75853.84;5072914;28;19912;-69
2022/08/17 11:29:54;;;;;;;;;;;;;;;-142.75;100.00;75873.50;5073073;28;20393;-69
2022/08/17 11:32:38;;;;;;;;;;;;;;;-142.75;100.00;75859.72;5073166;28;20003;-68
2022/08/17 11:35:06;;;;;;;;;;;;;;;-142.75;100.00;75857.78;5073020;28;19916;-69
2022/08/17 11:37:47;;;;;;;;;;;;;;;-142.75;100.00;75840.06;5072717;28;20003;-70
2022/08/17 11:40:25;;;;;;;;;;;;;;;-142.75;100.00;75830.22;5073051;28;20028;-68
2022/08/17 11:42:50;;;;;;;;;;;;;;;-142.75;100.00;75840.06;5072994;28;19951;-70
2022/08/17 11:45:32;;;;;;;;;;;;;;;-142.75;100.00;75836.13;5071626;28;19955;-70
2022/08/17 11:53:52;;;;;;;;;;;;;;;-142.75;100.00;75840.06;5073017;28;19940;-70
2022/08/17 11:56:39;;;;;;;;;;;;;;;-142.75;100.00;75845.97;5071400;28;20365;-69
2022/08/17 11:59:24;;;;;;;;;;;;;;;-142.75;100.00;75859.72;5072595;28;19962;-69
2022/08/17 12:01:51;;;;;;;;;;;;;;;-142.75;100.00;75847.94;5072827;28;20297;-69
2022/08/17 12:04:28;;;;;;;;;;;;;;;-142.75;100.00;75845.97;5072395;28;19913;-69
2022/08/17 12:07:09;;;;;;;;;;;;;;;-142.75;100.00;75863.66;5070742;28;19920;-69
2022/08/17 12:09:38;;;;;;;;;;;;;;;-142.75;100.00;75885.31;5083499;22;20397;-64
2022/08/17 12:12:11;;;;;;;;;;;;;;;-142.75;100.00;75889.25;5071136;28;19927;-64
2022/08/17 12:14:39;;;;;;;;;;;;;;;-142.75;100.00;75901.06;5051867;28;19912;-64
2022/08/17 12:17:04;;;;;;;;;;;;;;;-142.75;100.00;75893.19;5072182;28;19917;-64
2022/08/17 12:19:32;;;;;;;;;;;;;;;-142.75;100.00;75893.19;5068856;28;19917;-64
2022/08/17 12:22:04;;;;;;;;;;;;;;;-142.75;100.00;75899.09;5045278;28;20302;-64
2022/08/17 12:24:49;;;;;;;;;;;;;;;-142.75;100.00;75914.84;5053354;28;19920;-64
2022/08/17 12:27:40;;;;;;;;;;;;;;;-142.75;100.00;75920.75;5035510;28;19995;-64
2022/08/17 12:30:09;;;;;;;;;;;;;;;-142.75;100.00;75916.81;5048431;28;19913;-64
2022/08/17 12:32:35;;;;;;;;;;;;;;;-142.75;100.00;75914.84;5053752;28;20428;-64
2022/08/17 12:35:02;;;;;;;;;;;;;;;-142.75;100.00;75908.94;5054076;28;19968;-64
2022/08/17 12:37:32;;;;;;;;;;;;;;;-142.75;100.00;75918.78;5053401;28;19917;-64
2022/08/17 12:40:04;;;;;;;;;;;;;;;-142.75;100.00;75924.69;5053505;28;20338;-64
2022/08/17 12:42:31;;;;;;;;;;;;;;;-142.75;100.00;75908.94;5053927;28;19919;-64
2022/08/17 12:44:57;;;;;;;;;;;;;;;-142.75;100.00;75912.88;5056826;28;19924;-64
2022/08/17 12:47:22;;;;;;;;;;;;;;;-142.75;100.00;75912.88;5062988;28;19912;-65
2022/08/17 12:49:49;;;;;;;;;;;;;;;-142.75;100.00;75916.81;5063150;28;19912;-65
2022/08/17 12:52:14;;;;;;;;;;;;;;;-142.75;100.00;75905.00;5062073;28;20281;-66
2022/08/17 12:54:44;;;;;;;;;;;;;;;-142.75;100.00;75912.88;5064034;28;19919;-65
2022/08/17 12:57:31;;;;;;;;;;;;;;;-142.75;100.00;75905.00;5063946;28;19924;-65